Time;durP1;ratioP1;P1;durP2;ratioP2;P2;SDS_P1;SDS_P2;PMS_P1;PMS_P2;Temp;Humidity;BMP_temperature;BMP_pressure;BME280_temperature;BME280_humidity;BME280_pressure;Samples;Min_cycle;Max_cycle;Signal;HPM_P1;HPM_P2
2023/12/11 00:00:43;;;;;;;5.50;1.57;;;;;;;;;;5053716;28;20173;-86
2023/12/11 00:03:09;;;;;;;7.63;1.80;;;;;;;;;;5053194;28;20481;-87
2023/12/11 00:05:38;;;;;;;6.37;1.77;;;;;;;;;;5068976;28;20419;-84
2023/12/11 00:08:04;;;;;;;5.00;1.67;;;;;;;;;;5053480;28;20199;-84
2023/12/11 00:10:30;;;;;;;5.80;2.07;;;;;;;;;;5069352;28;20426;-81
2023/12/11 00:12:56;;;;;;;8.00;1.23;;;;;;;;;;5053438;28;20914;-83
2023/12/11 00:15:22;;;;;;;4.90;1.10;;;;;;;;;;5069182;28;20435;-80
2023/12/11 00:17:47;;;;;;;8.73;1.03;;;;;;;;;;5038733;28;20442;-81
2023/12/11 00:20:13;;;;;;;7.83;1.17;;;;;;;;;;5073190;28;20429;-84
2023/12/11 00:22:39;;;;;;;3.70;0.63;;;;;;;;;;5073289;28;20475;-85
2023/12/11 00:25:05;;;;;;;5.10;1.47;;;;;;;;;;5072750;28;20228;-87
2023/12/11 00:27:31;;;;;;;6.27;1.47;;;;;;;;;;5073298;28;20446;-81
2023/12/11 00:29:59;;;;;;;10.60;2.07;;;;;;;;;;5055094;28;20901;-82
2023/12/11 00:32:25;;;;;;;4.50;0.50;;;;;;;;;;5073264;28;20446;-87
2023/12/11 00:34:51;;;;;;;2.93;0.93;;;;;;;;;;5073240;28;20463;-82
2023/12/11 00:37:17;;;;;;;7.67;1.40;;;;;;;;;;5073410;28;20406;-83
2023/12/11 00:39:45;;;;;;;7.20;1.43;;;;;;;;;;5073359;28;20170;-86
2023/12/11 00:42:11;;;;;;;4.93;1.27;;;;;;;;;;5055308;28;20426;-81
2023/12/11 00:44:38;;;;;;;8.07;0.70;;;;;;;;;;5073471;28;20497;-85
2023/12/11 00:47:04;;;;;;;6.77;1.37;;;;;;;;;;5072978;28;20414;-86
2023/12/11 00:49:30;;;;;;;4.93;1.23;;;;;;;;;;5073609;28;20469;-86
2023/12/11 00:51:56;;;;;;;3.93;1.10;;;;;;;;;;5055265;28;20421;-83
2023/12/11 00:54:22;;;;;;;3.30;1.03;;;;;;;;;;5073849;28;20821;-82
2023/12/11 00:56:48;;;;;;;3.60;0.60;;;;;;;;;;5077060;28;20225;-82
2023/12/11 00:59:17;;;;;;;3.80;0.90;;;;;;;;;;5077037;28;20476;-83
2023/12/11 01:01:42;;;;;;;6.80;1.93;;;;;;;;;;5077105;28;20463;-83
2023/12/11 01:04:09;;;;;;;4.17;2.00;;;;;;;;;;5077069;28;20409;-83
2023/12/11 01:06:35;;;;;;;5.70;0.60;;;;;;;;;;5059418;28;20417;-88
2023/12/11 01:09:01;;;;;;;9.93;1.77;;;;;;;;;;5076894;28;20533;-81
2023/12/11 01:11:27;;;;;;;5.30;0.90;;;;;;;;;;5059060;28;20415;-83
2023/12/11 01:13:52;;;;;;;9.23;0.80;;;;;;;;;;5059044;28;20410;-84
2023/12/11 01:16:19;;;;;;;6.23;0.93;;;;;;;;;;5076851;28;20399;-86
2023/12/11 01:18:48;;;;;;;4.83;1.83;;;;;;;;;;5057993;28;20499;-89
2023/12/11 01:21:17;;;;;;;3.30;0.70;;;;;;;;;;5058898;28;20768;-85
2023/12/11 01:23:43;;;;;;;4.43;1.20;;;;;;;;;;5058605;28;20917;-82
2023/12/11 01:26:12;;;;;;;7.47;1.73;;;;;;;;;;5076650;28;20404;-87
2023/12/11 01:28:38;;;;;;;6.40;1.10;;;;;;;;;;5076268;28;20564;-88
2023/12/11 01:31:04;;;;;;;6.53;1.50;;;;;;;;;;5058719;28;20456;-83
2023/12/11 01:33:30;;;;;;;6.20;1.20;;;;;;;;;;5076174;28;20178;-87
2023/12/11 01:35:56;;;;;;;7.30;1.83;;;;;;;;;;5076688;28;20398;-82
2023/12/11 01:38:22;;;;;;;3.73;2.13;;;;;;;;;;5076816;28;20487;-89
2023/12/11 01:40:47;;;;;;;8.00;1.53;;;;;;;;;;5058604;28;20403;-82
2023/12/11 01:43:17;;;;;;;2.50;0.97;;;;;;;;;;5076717;28;20439;-88
2023/12/11 01:45:43;;;;;;;8.07;1.70;;;;;;;;;;5076543;28;20410;-82
2023/12/11 01:48:10;;;;;;;7.97;1.60;;;;;;;;;;5076013;28;20460;-82
2023/12/11 01:50:36;;;;;;;5.70;1.33;;;;;;;;;;5076413;28;20429;-83
2023/12/11 01:53:03;;;;;;;5.27;1.40;;;;;;;;;;5076592;28;20418;-82
2023/12/11 01:55:31;;;;;;;8.50;1.50;;;;;;;;;;5076325;28;20769;-88
2023/12/11 01:57:59;;;;;;;8.33;1.37;;;;;;;;;;5076341;28;20421;-87
2023/12/11 02:00:25;;;;;;;6.90;1.90;;;;;;;;;;5076261;28;20422;-87
2023/12/11 02:02:54;;;;;;;5.40;1.57;;;;;;;;;;5057953;28;20419;-89
2023/12/11 02:05:20;;;;;;;7.87;1.70;;;;;;;;;;5076266;28;20418;-85
2023/12/11 02:07:46;;;;;;;5.10;2.10;;;;;;;;;;5058120;28;20897;-87
2023/12/11 02:10:12;;;;;;;3.90;1.00;;;;;;;;;;5076030;28;20425;-83
2023/12/11 02:12:39;;;;;;;5.80;0.70;;;;;;;;;;5075675;28;20403;-81
2023/12/11 02:15:05;;;;;;;6.40;0.70;;;;;;;;;;5075600;28;20422;-88
2023/12/11 02:17:31;;;;;;;4.33;1.00;;;;;;;;;;5075853;28;20514;-81
2023/12/11 02:19:57;;;;;;;5.17;1.00;;;;;;;;;;5075831;28;20503;-86
2023/12/11 02:22:24;;;;;;;7.50;0.80;;;;;;;;;;5075704;28;20418;-88
2023/12/11 02:24:52;;;;;;;4.47;0.80;;;;;;;;;;5057505;28;20470;-85
2023/12/11 02:27:17;;;;;;;6.33;0.90;;;;;;;;;;5034607;28;20447;-86
2023/12/11 02:29:43;;;;;;;4.00;1.07;;;;;;;;;;5075726;28;20830;-82
2023/12/11 02:32:09;;;;;;;2.90;1.33;;;;;;;;;;5057263;28;20449;-89
2023/12/11 02:34:36;;;;;;;3.70;1.23;;;;;;;;;;5075715;28;20428;-83
2023/12/11 02:37:02;;;;;;;6.60;2.50;;;;;;;;;;5075313;28;20513;-81
2023/12/11 02:39:31;;;;;;;7.40;2.47;;;;;;;;;;5074845;28;20827;-85
2023/12/11 02:41:57;;;;;;;4.73;2.23;;;;;;;;;;5075657;28;20445;-82
2023/12/11 02:44:23;;;;;;;7.83;4.20;;;;;;;;;;5057271;28;20466;-88
2023/12/11 02:46:48;;;;;;;8.07;3.40;;;;;;;;;;5075093;28;20497;-88
2023/12/11 02:49:14;;;;;;;10.90;4.50;;;;;;;;;;5075525;28;20527;-82
2023/12/11 02:51:40;;;;;;;8.93;3.70;;;;;;;;;;5075771;28;20948;-88
2023/12/11 02:54:06;;;;;;;9.70;4.93;;;;;;;;;;5075389;28;20175;-86
2023/12/11 02:56:32;;;;;;;13.30;6.03;;;;;;;;;;5057265;28;20409;-83
2023/12/11 02:58:58;;;;;;;14.40;5.20;;;;;;;;;;5074533;28;20414;-83
2023/12/11 03:01:24;;;;;;;10.83;4.80;;;;;;;;;;5074191;28;20222;-81
2023/12/11 03:03:50;;;;;;;12.40;6.00;;;;;;;;;;5074386;28;20929;-82
2023/12/11 03:06:19;;;;;;;12.83;6.10;;;;;;;;;;5074481;28;20178;-82
2023/12/11 03:08:45;;;;;;;10.03;4.33;;;;;;;;;;5056871;28;20846;-82
2023/12/11 03:11:14;;;;;;;13.00;5.43;;;;;;;;;;5087436;28;20418;-82
2023/12/11 03:13:40;;;;;;;11.90;4.73;;;;;;;;;;5056688;28;20419;-81
2023/12/11 03:16:06;;;;;;;10.27;5.70;;;;;;;;;;5056772;28;20423;-83
2023/12/11 03:18:32;;;;;;;13.57;4.10;;;;;;;;;;5073559;28;20778;-81
2023/12/11 03:20:58;;;;;;;9.20;3.43;;;;;;;;;;5056265;28;20421;-81
2023/12/11 03:23:26;;;;;;;13.63;6.70;;;;;;;;;;5055928;28;20184;-81
2023/12/11 03:25:52;;;;;;;14.07;4.60;;;;;;;;;;5055869;28;20455;-81
2023/12/11 03:28:18;;;;;;;16.07;4.83;;;;;;;;;;5055376;28;21046;-83
2023/12/11 03:30:44;;;;;;;20.00;4.50;;;;;;;;;;5061424;28;20955;-82
2023/12/11 03:33:16;;;;;;;9.93;3.57;;;;;;;;;;5072845;28;20227;-81
2023/12/11 03:35:42;;;;;;;18.17;5.20;;;;;;;;;;5072073;28;20637;-89
2023/12/11 03:38:08;;;;;;;14.70;4.33;;;;;;;;;;5073310;28;20506;-84
2023/12/11 03:40:33;;;;;;;13.83;3.90;;;;;;;;;;5073944;28;20402;-81
2023/12/11 03:43:00;;;;;;;19.30;4.17;;;;;;;;;;5073796;28;20279;-82
2023/12/11 03:45:26;;;;;;;22.07;3.57;;;;;;;;;;5073670;28;20925;-82
2023/12/11 03:47:52;;;;;;;13.07;2.70;;;;;;;;;;5073171;28;20403;-82
2023/12/11 03:50:18;;;;;;;13.70;2.60;;;;;;;;;;5073604;28;20418;-81
2023/12/11 03:52:43;;;;;;;21.07;3.83;;;;;;;;;;5073580;28;20898;-82
2023/12/11 03:55:09;;;;;;;15.67;3.60;;;;;;;;;;5073503;28;20207;-84
2023/12/11 03:57:35;;;;;;;17.63;2.90;;;;;;;;;;5055532;28;20419;-82
2023/12/11 04:00:01;;;;;;;14.33;3.20;;;;;;;;;;5073299;28;20217;-83
2023/12/11 04:02:27;;;;;;;10.80;2.37;;;;;;;;;;5072942;28;20449;-82
2023/12/11 04:04:53;;;;;;;14.53;3.07;;;;;;;;;;5073337;28;20752;-83
2023/12/11 04:07:31;;;;;;;18.60;3.00;;;;;;;;;;5073417;28;20182;-81
2023/12/11 04:09:57;;;;;;;10.77;2.53;;;;;;;;;;5073121;28;21010;-82
2023/12/11 04:12:23;;;;;;;13.90;2.57;;;;;;;;;;5055169;28;20442;-82
2023/12/11 04:14:49;;;;;;;24.63;5.10;;;;;;;;;;5055162;28;20422;-81
2023/12/11 04:17:15;;;;;;;15.60;3.00;;;;;;;;;;5072755;28;20414;-82
2023/12/11 04:19:41;;;;;;;14.90;2.30;;;;;;;;;;5073139;28;20208;-81
2023/12/11 04:22:06;;;;;;;13.27;2.67;;;;;;;;;;5073247;28;20979;-81
2023/12/11 04:24:32;;;;;;;21.30;2.80;;;;;;;;;;5072885;28;20520;-81
2023/12/11 04:26:58;;;;;;;15.37;3.47;;;;;;;;;;5073028;28;20172;-81
2023/12/11 04:29:24;;;;;;;18.17;3.60;;;;;;;;;;5071924;28;20477;-80
2023/12/11 04:31:50;;;;;;;14.83;2.90;;;;;;;;;;5032159;28;20470;-85
2023/12/11 04:34:16;;;;;;;23.70;3.43;;;;;;;;;;5073238;28;20184;-84
2023/12/11 04:36:54;;;;;;;13.07;3.27;;;;;;;;;;5072709;28;20176;-81
2023/12/11 04:39:20;;;;;;;13.03;2.03;;;;;;;;;;5070842;28;20781;-81
2023/12/11 04:41:46;;;;;;;16.60;4.03;;;;;;;;;;5072709;28;20562;-82
2023/12/11 04:44:12;;;;;;;16.23;3.60;;;;;;;;;;5057789;28;20183;-81
2023/12/11 04:46:37;;;;;;;16.83;4.13;;;;;;;;;;5072535;28;20171;-81
2023/12/11 04:49:03;;;;;;;14.77;3.23;;;;;;;;;;5072920;28;20239;-83
2023/12/11 04:51:29;;;;;;;16.77;3.70;;;;;;;;;;5072856;28;20173;-81
2023/12/11 04:53:55;;;;;;;16.00;3.50;;;;;;;;;;5072875;28;20413;-81
2023/12/11 04:56:24;;;;;;;20.23;4.50;;;;;;;;;;5054925;28;20632;-84
2023/12/11 04:58:50;;;;;;;26.63;6.10;;;;;;;;;;5054774;28;20974;-81
2023/12/11 05:01:17;;;;;;;21.63;4.67;;;;;;;;;;5072381;28;20895;-81
2023/12/11 05:03:44;;;;;;;23.63;5.77;;;;;;;;;;5072252;28;20912;-87
2023/12/11 05:06:10;;;;;;;21.27;6.00;;;;;;;;;;5073343;28;20512;-81
2023/12/11 05:08:36;;;;;;;22.27;6.77;;;;;;;;;;5072510;28;20531;-81
2023/12/11 05:11:01;;;;;;;24.93;6.23;;;;;;;;;;5072212;28;20430;-86
2023/12/11 05:13:27;;;;;;;21.47;5.27;;;;;;;;;;5060796;28;20203;-81
2023/12/11 05:15:53;;;;;;;25.67;6.57;;;;;;;;;;5071982;28;20429;-81
2023/12/11 05:18:19;;;;;;;28.27;7.87;;;;;;;;;;5072272;28;20520;-81
2023/12/11 05:20:45;;;;;;;23.67;6.73;;;;;;;;;;5072340;28;20427;-82
2023/12/11 05:23:11;;;;;;;24.50;8.60;;;;;;;;;;5072219;28;20216;-82
2023/12/11 05:25:37;;;;;;;23.93;7.60;;;;;;;;;;5072332;28;20231;-82
2023/12/11 05:28:03;;;;;;;23.83;6.93;;;;;;;;;;5072525;28;20180;-83
2023/12/11 05:30:29;;;;;;;20.97;6.37;;;;;;;;;;5054417;28;20182;-81
2023/12/11 05:32:55;;;;;;;28.00;7.10;;;;;;;;;;5072104;28;20406;-81
2023/12/11 05:35:21;;;;;;;26.37;6.70;;;;;;;;;;5072390;28;20417;-82
2023/12/11 05:37:47;;;;;;;31.03;6.30;;;;;;;;;;5072401;28;20170;-85
2023/12/11 05:40:13;;;;;;;22.00;6.30;;;;;;;;;;5031239;28;20431;-83
2023/12/11 05:42:38;;;;;;;22.23;7.30;;;;;;;;;;5058082;28;20176;-83
2023/12/11 05:45:05;;;;;;;15.10;4.50;;;;;;;;;;5058021;28;20523;-83
2023/12/11 05:47:30;;;;;;;21.00;4.80;;;;;;;;;;5075511;28;20177;-82
2023/12/11 05:49:56;;;;;;;36.30;6.47;;;;;;;;;;5075775;28;21004;-82
2023/12/11 05:52:22;;;;;;;23.83;6.10;;;;;;;;;;5075840;28;20499;-82
2023/12/11 05:54:48;;;;;;;20.70;5.97;;;;;;;;;;5075945;28;20177;-83
2023/12/11 05:57:14;;;;;;;26.30;6.17;;;;;;;;;;5075673;28;20178;-82
2023/12/11 05:59:40;;;;;;;24.87;6.60;;;;;;;;;;5075736;28;20404;-82
2023/12/11 06:02:06;;;;;;;21.93;4.97;;;;;;;;;;5075164;28;20419;-82
2023/12/11 06:04:32;;;;;;;25.17;6.70;;;;;;;;;;5075499;28;20414;-82
2023/12/11 06:06:58;;;;;;;19.33;4.60;;;;;;;;;;5075566;28;20174;-82
2023/12/11 06:09:24;;;;;;;24.13;4.47;;;;;;;;;;5075406;28;20526;-82
2023/12/11 06:11:53;;;;;;;28.67;5.93;;;;;;;;;;5075484;28;20411;-82
2023/12/11 06:14:19;;;;;;;22.47;5.27;;;;;;;;;;5075351;28;20414;-82
2023/12/11 06:16:45;;;;;;;26.50;5.03;;;;;;;;;;5075019;28;20883;-83
2023/12/11 06:19:11;;;;;;;17.27;4.30;;;;;;;;;;5075348;28;20176;-83
2023/12/11 06:21:38;;;;;;;23.20;5.43;;;;;;;;;;5075267;28;20460;-82
2023/12/11 06:24:07;;;;;;;22.93;5.50;;;;;;;;;;5075148;28;20461;-81
2023/12/11 06:26:36;;;;;;;16.23;4.07;;;;;;;;;;5075317;28;20501;-85
2023/12/11 06:29:02;;;;;;;18.70;4.20;;;;;;;;;;5075251;28;20500;-83
2023/12/11 06:31:31;;;;;;;25.30;5.17;;;;;;;;;;5074944;28;20570;-81
2023/12/11 06:33:57;;;;;;;15.47;4.20;;;;;;;;;;5075088;28;20418;-83
2023/12/11 06:36:25;;;;;;;22.47;4.57;;;;;;;;;;5074966;28;20397;-81
2023/12/11 06:38:51;;;;;;;17.60;4.70;;;;;;;;;;5075303;28;20412;-81
2023/12/11 06:41:17;;;;;;;31.80;7.10;;;;;;;;;;5075183;28;20404;-85
2023/12/11 06:43:53;;;;;;;19.50;5.90;;;;;;;;;;5075208;28;20423;-81
2023/12/11 06:46:19;;;;;;;24.50;5.17;;;;;;;;;;5060710;28;20455;-84
2023/12/11 06:48:45;;;;;;;25.63;5.50;;;;;;;;;;5050902;28;20471;-81
2023/12/11 06:51:11;;;;;;;21.63;5.33;;;;;;;;;;5075530;28;20484;-81
2023/12/11 06:53:37;;;;;;;23.17;4.77;;;;;;;;;;5074674;28;20421;-81
2023/12/11 06:56:06;;;;;;;22.87;5.57;;;;;;;;;;5075773;28;20259;-81
2023/12/11 06:58:33;;;;;;;19.53;4.87;;;;;;;;;;5075686;28;20420;-81
2023/12/11 07:00:59;;;;;;;19.83;4.10;;;;;;;;;;5074826;28;20410;-82
2023/12/11 07:03:25;;;;;;;24.07;4.60;;;;;;;;;;5075003;28;20501;-81
2023/12/11 07:05:50;;;;;;;15.27;4.57;;;;;;;;;;5075526;28;20411;-87
2023/12/11 07:08:16;;;;;;;23.17;4.20;;;;;;;;;;5075056;28;20801;-82
2023/12/11 07:10:42;;;;;;;17.23;3.93;;;;;;;;;;5075090;28;20203;-92
2023/12/11 07:13:11;;;;;;;22.00;5.40;;;;;;;;;;5075428;28;20262;-89
2023/12/11 07:15:37;;;;;;;23.63;4.40;;;;;;;;;;5074926;28;20914;-84
2023/12/11 07:18:03;;;;;;;22.17;4.77;;;;;;;;;;5057511;28;20417;-93
2023/12/11 07:20:33;;;;;;;25.00;4.80;;;;;;;;;;5075052;28;20424;-89
2023/12/11 07:22:58;;;;;;;19.67;4.93;;;;;;;;;;5075066;28;20749;-88
2023/12/11 07:25:24;;;;;;;18.13;4.10;;;;;;;;;;5074668;28;20478;-92
2023/12/11 07:27:50;;;;;;;17.97;5.50;;;;;;;;;;5057072;28;20402;-87
2023/12/11 07:30:16;;;;;;;23.70;4.83;;;;;;;;;;5074800;28;20562;-82
2023/12/11 07:32:42;;;;;;;16.40;4.87;;;;;;;;;;5062296;28;20470;-90
2023/12/11 07:35:11;;;;;;;23.57;4.80;;;;;;;;;;5074769;28;20434;-89
2023/12/11 07:37:39;;;;;;;25.70;5.20;;;;;;;;;;5074482;28;20408;-90
2023/12/11 07:40:05;;;;;;;18.30;4.47;;;;;;;;;;5074430;28;20416;-88
2023/12/11 07:42:31;;;;;;;15.83;3.73;;;;;;;;;;5074215;28;20455;-84
2023/12/11 07:44:57;;;;;;;21.27;5.80;;;;;;;;;;5056305;28;20826;-89
2023/12/11 07:47:23;;;;;;;16.27;3.20;;;;;;;;;;5073926;28;20446;-83
2023/12/11 07:49:49;;;;;;;24.33;3.93;;;;;;;;;;5074264;28;20474;-90
2023/12/11 07:52:15;;;;;;;21.63;4.00;;;;;;;;;;5056389;28;20507;-87
2023/12/11 07:54:41;;;;;;;24.10;4.20;;;;;;;;;;5074329;28;20197;-87
2023/12/11 07:57:07;;;;;;;21.63;3.83;;;;;;;;;;5058126;28;20626;-88
2023/12/11 07:59:33;;;;;;;16.40;3.30;;;;;;;;;;5073566;28;20421;-80
2023/12/11 08:01:59;;;;;;;16.07;4.17;;;;;;;;;;5074115;28;20509;-85
2023/12/11 08:04:24;;;;;;;12.70;3.57;;;;;;;;;;5074874;28;20419;-91
2023/12/11 08:06:50;;;;;;;25.37;4.20;;;;;;;;;;5086476;28;20159;-83
2023/12/11 08:09:16;;;;;;;11.60;3.27;;;;;;;;;;5081435;28;20459;-81
2023/12/11 08:11:43;;;;;;;15.70;4.50;;;;;;;;;;5078649;28;20429;-89
2023/12/11 08:14:08;;;;;;;16.53;4.10;;;;;;;;;;5062256;28;20435;-88
2023/12/11 08:16:34;;;;;;;18.13;3.03;;;;;;;;;;5073498;28;20466;-81
2023/12/11 08:19:01;;;;;;;13.57;3.20;;;;;;;;;;5055861;28;20426;-86
2023/12/11 08:21:26;;;;;;;20.00;4.80;;;;;;;;;;5074003;28;20480;-84
2023/12/11 08:23:55;;;;;;;19.70;4.40;;;;;;;;;;5073620;28;20467;-88
2023/12/11 08:26:21;;;;;;;17.47;3.93;;;;;;;;;;5072987;28;20197;-87
2023/12/11 08:28:49;;;;;;;24.50;5.60;;;;;;;;;;5055825;28;20478;-89
2023/12/11 08:31:17;;;;;;;16.10;4.00;;;;;;;;;;5073505;28;20446;-89
2023/12/11 08:33:44;;;;;;;18.87;5.97;;;;;;;;;;5073573;28;20803;-81
2023/12/11 08:36:10;;;;;;;29.20;5.20;;;;;;;;;;5073673;28;20767;-90
2023/12/11 08:38:36;;;;;;;19.87;3.67;;;;;;;;;;5073937;28;20768;-90
2023/12/11 08:41:01;;;;;;;14.87;3.23;;;;;;;;;;5073856;28;20416;-89
2023/12/11 08:43:27;;;;;;;15.00;4.67;;;;;;;;;;5073549;28;20423;-83
2023/12/11 08:45:53;;;;;;;19.73;4.27;;;;;;;;;;5073118;28;20414;-82
2023/12/11 08:48:20;;;;;;;18.30;4.57;;;;;;;;;;5073818;28;20275;-92
2023/12/11 08:50:48;;;;;;;26.60;5.30;;;;;;;;;;5073595;28;20418;-88
2023/12/11 08:53:14;;;;;;;17.97;5.00;;;;;;;;;;5055301;28;20412;-85
2023/12/11 08:55:40;;;;;;;12.23;3.47;;;;;;;;;;5048236;28;20467;-88
2023/12/11 08:58:06;;;;;;;27.13;5.30;;;;;;;;;;5057468;28;20178;-82
2023/12/11 09:00:32;;;;;;;16.73;5.77;;;;;;;;;;5072196;28;20415;-82
2023/12/11 09:02:58;;;;;;;14.67;3.57;;;;;;;;;;5072442;28;20446;-83
2023/12/11 09:05:24;;;;;;;16.83;4.77;;;;;;;;;;5074271;28;20413;-90
2023/12/11 09:07:49;;;;;;;17.87;4.00;;;;;;;;;;5073148;28;20455;-86
2023/12/11 09:10:19;;;;;;;19.33;4.90;;;;;;;;;;5056339;28;20481;-87
2023/12/11 09:12:45;;;;;;;20.93;4.83;;;;;;;;;;5073154;28;20771;-81
2023/12/11 09:15:13;;;;;;;21.03;4.83;;;;;;;;;;5074369;28;20401;-89
2023/12/11 09:17:42;;;;;;;15.30;3.70;;;;;;;;;;5059720;28;20412;-89
2023/12/11 09:20:09;;;;;;;12.87;4.10;;;;;;;;;;5076720;28;20413;-81
2023/12/11 09:22:36;;;;;;;23.20;5.57;;;;;;;;;;5076748;28;20420;-89
2023/12/11 09:25:02;;;;;;;18.63;5.40;;;;;;;;;;5076524;28;20983;-88
2023/12/11 09:27:28;;;;;;;18.07;5.13;;;;;;;;;;5076727;28;20462;-82
2023/12/11 09:29:54;;;;;;;23.13;5.90;;;;;;;;;;5076039;28;20470;-87
2023/12/11 09:32:20;;;;;;;17.90;3.93;;;;;;;;;;5058206;28;20419;-82
2023/12/11 09:34:46;;;;;;;18.40;6.37;;;;;;;;;;5075796;28;20908;-87
2023/12/11 09:37:12;;;;;;;21.93;6.73;;;;;;;;;;5076453;28;20538;-88
2023/12/11 09:39:39;;;;;;;25.50;5.03;;;;;;;;;;5076548;28;20909;-85
2023/12/11 09:42:06;;;;;;;14.20;4.50;;;;;;;;;;5076463;28;20407;-84
2023/12/11 09:44:32;;;;;;;13.53;2.97;;;;;;;;;;5092003;28;20429;-81
2023/12/11 09:47:11;;;;;;;16.63;3.63;;;;;;;;;;5075649;28;20402;-81
2023/12/11 09:49:38;;;;;;;15.97;3.80;;;;;;;;;;5075998;28;20504;-82
2023/12/11 09:52:04;;;;;;;20.57;4.43;;;;;;;;;;5076060;28;20817;-81
2023/12/11 09:54:30;;;;;;;13.90;4.50;;;;;;;;;;5076376;28;20505;-89
2023/12/11 09:56:56;;;;;;;15.47;3.13;;;;;;;;;;5038178;28;20446;-81
2023/12/11 09:59:23;;;;;;;13.13;3.23;;;;;;;;;;5056074;28;20426;-81
2023/12/11 10:01:49;;;;;;;12.83;3.30;;;;;;;;;;5075510;28;20418;-82
2023/12/11 10:04:15;;;;;;;10.93;3.33;;;;;;;;;;5076139;28;20412;-89
2023/12/11 10:06:41;;;;;;;22.67;4.40;;;;;;;;;;5075905;28;20413;-82
2023/12/11 10:09:07;;;;;;;13.47;3.50;;;;;;;;;;5075992;28;20480;-81
2023/12/11 10:11:33;;;;;;;17.57;3.97;;;;;;;;;;5075830;28;20175;-82
2023/12/11 10:14:11;;;;;;;18.30;3.07;;;;;;;;;;5074312;28;20665;-86
2023/12/11 10:16:37;;;;;;;15.23;2.33;;;;;;;;;;5074888;28;20766;-80
2023/12/11 10:19:03;;;;;;;12.30;2.37;;;;;;;;;;5075343;28;20418;-82
2023/12/11 10:21:38;;;;;;;11.97;2.83;;;;;;;;;;5075522;28;20174;-88
2023/12/11 10:24:04;;;;;;;10.17;3.30;;;;;;;;;;5075146;28;20459;-82
2023/12/11 10:26:36;;;;;;;17.10;3.40;;;;;;;;;;5074686;28;20465;-81
2023/12/11 10:29:17;;;;;;;12.23;2.70;;;;;;;;;;5074518;28;20455;-81
2023/12/11 10:31:43;;;;;;;12.77;2.40;;;;;;;;;;5074688;28;20935;-81
2023/12/11 10:34:09;;;;;;;9.40;2.00;;;;;;;;;;5075176;28;20410;-82
2023/12/11 10:36:35;;;;;;;13.90;2.27;;;;;;;;;;5075064;28;20186;-82
2023/12/11 10:39:08;;;;;;;10.67;2.63;;;;;;;;;;5074776;28;20216;-81
2023/12/11 10:41:34;;;;;;;9.07;2.43;;;;;;;;;;5074912;28;20920;-81
2023/12/11 10:44:00;;;;;;;10.47;2.37;;;;;;;;;;5074872;28;20413;-80
2023/12/11 10:46:26;;;;;;;8.63;1.70;;;;;;;;;;5074553;28;20411;-82
2023/12/11 10:48:52;;;;;;;10.07;1.93;;;;;;;;;;5074614;28;20473;-82
2023/12/11 10:51:18;;;;;;;13.03;2.60;;;;;;;;;;5074324;28;20480;-82
2023/12/11 10:53:45;;;;;;;9.90;1.10;;;;;;;;;;5073734;28;20477;-81
2023/12/11 10:56:11;;;;;;;11.70;1.83;;;;;;;;;;5074493;28;20415;-82
2023/12/11 10:58:39;;;;;;;8.40;2.30;;;;;;;;;;5074442;28;20475;-84
2023/12/11 11:01:06;;;;;;;7.90;2.17;;;;;;;;;;5074173;28;20418;-82
2023/12/11 11:03:32;;;;;;;10.10;1.07;;;;;;;;;;5074557;28;20409;-83
2023/12/11 11:05:58;;;;;;;10.20;2.53;;;;;;;;;;5074506;28;20426;-84
2023/12/11 11:08:48;;;;;;;13.30;2.93;;;;;;;;;;5074128;28;21055;-83
2023/12/11 11:11:14;;;;;;;11.10;2.50;;;;;;;;;;5074226;28;20417;-81
2023/12/11 11:14:02;;;;;;;10.00;1.47;;;;;;;;;;5074189;28;20417;-81
2023/12/11 11:16:47;;;;;;;9.77;1.70;;;;;;;;;;5032859;28;20188;-80
2023/12/11 11:19:13;;;;;;;20.03;3.10;;;;;;;;;;5073892;28;20405;-80
2023/12/11 11:21:39;;;;;;;8.03;2.23;;;;;;;;;;5074108;28;20424;-81
2023/12/11 11:24:25;;;;;;;10.20;2.10;;;;;;;;;;5055923;28;20544;-81
2023/12/11 11:26:51;;;;;;;6.57;1.10;;;;;;;;;;5074019;28;20418;-81
2023/12/11 11:29:37;;;;;;;11.17;1.73;;;;;;;;;;5073372;28;20492;-80
2023/12/11 11:32:03;;;;;;;9.77;1.97;;;;;;;;;;5071512;28;20183;-81
2023/12/11 11:34:41;;;;;;;6.70;1.20;;;;;;;;;;5073810;28;20489;-81
2023/12/11 11:37:14;;;;;;;14.47;1.83;;;;;;;;;;5073977;28;20454;-86
2023/12/11 11:39:59;;;;;;;11.20;2.30;;;;;;;;;;5073442;28;21007;-85
2023/12/11 11:42:25;;;;;;;8.87;1.33;;;;;;;;;;5073517;28;20413;-79
2023/12/11 11:44:58;;;;;;;10.63;1.87;;;;;;;;;;5073371;28;20478;-84
2023/12/11 11:47:24;;;;;;;11.30;3.13;;;;;;;;;;5067821;28;20428;-82
2023/12/11 11:49:51;;;;;;;10.50;1.63;;;;;;;;;;5070256;28;20508;-83
2023/12/11 11:52:23;;;;;;;12.20;1.77;;;;;;;;;;5073355;28;20408;-81
2023/12/11 11:54:51;;;;;;;8.20;1.87;;;;;;;;;;5073490;28;20421;-81
2023/12/11 11:57:17;;;;;;;7.90;1.47;;;;;;;;;;5073396;28;20421;-81
2023/12/11 11:59:46;;;;;;;9.03;1.90;;;;;;;;;;5072817;28;20427;-82
2023/12/11 12:02:12;;;;;;;9.00;2.50;;;;;;;;;;5073155;28;20777;-81
2023/12/11 12:04:38;;;;;;;8.83;1.67;;;;;;;;;;5073540;28;20775;-82
2023/12/11 12:07:05;;;;;;;9.17;1.97;;;;;;;;;;5073176;28;20412;-80
2023/12/11 12:09:31;;;;;;;11.00;1.60;;;;;;;;;;5072968;28;20250;-83
2023/12/11 12:11:58;;;;;;;8.47;1.90;;;;;;;;;;5073082;28;20421;-82
2023/12/11 12:14:25;;;;;;;10.30;1.73;;;;;;;;;;5055356;28;20427;-82
2023/12/11 12:16:52;;;;;;;10.70;1.77;;;;;;;;;;5072894;28;20485;-82
2023/12/11 12:19:28;;;;;;;9.60;2.10;;;;;;;;;;5073062;28;20417;-82
2023/12/11 12:21:55;;;;;;;9.60;2.60;;;;;;;;;;5034342;28;20516;-83
2023/12/11 12:24:21;;;;;;;10.17;2.57;;;;;;;;;;5050743;28;20984;-81
2023/12/11 12:26:58;;;;;;;8.90;2.13;;;;;;;;;;5053125;28;20433;-83
2023/12/11 12:29:26;;;;;;;8.23;2.90;;;;;;;;;;5052624;28;21057;-82
2023/12/11 12:31:52;;;;;;;8.10;1.30;;;;;;;;;;5052467;28;20971;-80
2023/12/11 12:34:18;;;;;;;7.67;2.10;;;;;;;;;;5053037;28;20418;-80
2023/12/11 12:36:44;;;;;;;8.37;1.80;;;;;;;;;;5052953;28;20408;-82
2023/12/11 12:39:14;;;;;;;12.03;1.90;;;;;;;;;;5052772;28;20497;-81
2023/12/11 12:41:40;;;;;;;9.97;1.13;;;;;;;;;;5052733;28;20403;-80
2023/12/11 12:44:06;;;;;;;8.80;1.27;;;;;;;;;;5051646;28;20491;-81
2023/12/11 12:46:39;;;;;;;6.93;1.03;;;;;;;;;;5052540;28;20529;-82
2023/12/11 12:49:08;;;;;;;7.00;1.73;;;;;;;;;;5052043;28;20476;-82
2023/12/11 12:51:43;;;;;;;5.50;0.60;;;;;;;;;;5056382;28;20416;-82
2023/12/11 12:54:10;;;;;;;5.70;1.00;;;;;;;;;;5070144;28;20407;-82
2023/12/11 12:56:36;;;;;;;3.57;0.70;;;;;;;;;;5081910;28;20416;-80
2023/12/11 12:59:02;;;;;;;1.90;0.40;;;;;;;;;;5080288;28;20424;-82
2023/12/11 13:01:36;;;;;;;1.70;0.23;;;;;;;;;;5062229;28;20397;-84
2023/12/11 13:04:02;;;;;;;2.50;0.43;;;;;;;;;;5066506;28;20417;-83
2023/12/11 13:06:28;;;;;;;3.67;0.20;;;;;;;;;;5066289;28;20425;-83
2023/12/11 13:08:54;;;;;;;2.83;0.57;;;;;;;;;;5076225;28;20201;-82
2023/12/11 13:11:20;;;;;;;2.23;0.40;;;;;;;;;;5075979;28;20433;-85
2023/12/11 13:13:53;;;;;;;4.00;0.63;;;;;;;;;;5075852;28;20456;-82
2023/12/11 13:16:19;;;;;;;2.20;0.50;;;;;;;;;;5075659;28;20480;-83
2023/12/11 13:18:45;;;;;;;5.60;1.23;;;;;;;;;;5076059;28;20942;-82
2023/12/11 13:21:11;;;;;;;6.50;1.07;;;;;;;;;;5067018;28;20184;-84
2023/12/11 13:23:37;;;;;;;6.13;0.80;;;;;;;;;;5035200;28;21041;-82
2023/12/11 13:26:03;;;;;;;5.97;1.60;;;;;;;;;;5075733;28;20437;-82
2023/12/11 13:28:29;;;;;;;5.17;1.00;;;;;;;;;;5075677;28;20471;-83
2023/12/11 13:30:55;;;;;;;8.97;1.93;;;;;;;;;;5075260;28;20409;-82
2023/12/11 13:33:21;;;;;;;6.57;1.40;;;;;;;;;;5075382;28;20405;-82
2023/12/11 13:35:48;;;;;;;8.03;1.57;;;;;;;;;;5075610;28;20219;-82
2023/12/11 13:38:14;;;;;;;8.57;1.83;;;;;;;;;;5062743;28;20640;-81
2023/12/11 13:40:40;;;;;;;5.00;1.67;;;;;;;;;;5074877;28;20424;-81
2023/12/11 13:43:05;;;;;;;5.40;2.33;;;;;;;;;;5075278;28;20228;-81
2023/12/11 13:45:31;;;;;;;7.00;1.87;;;;;;;;;;5062122;28;20910;-81
2023/12/11 13:47:57;;;;;;;10.00;2.00;;;;;;;;;;5075343;28;20174;-80
2023/12/11 13:50:23;;;;;;;5.90;2.67;;;;;;;;;;5075021;28;20709;-81
2023/12/11 13:52:49;;;;;;;10.30;1.90;;;;;;;;;;5074560;28;20263;-81
2023/12/11 13:55:16;;;;;;;5.90;1.93;;;;;;;;;;5075173;28;20179;-81
2023/12/11 13:57:42;;;;;;;5.60;2.53;;;;;;;;;;5075043;28;20405;-81
2023/12/11 14:00:08;;;;;;;4.33;1.50;;;;;;;;;;5074805;28;20415;-81
2023/12/11 14:02:34;;;;;;;8.70;2.20;;;;;;;;;;5064786;28;20954;-82
2023/12/11 14:05:00;;;;;;;4.70;2.00;;;;;;;;;;5064234;28;20429;-82
2023/12/11 14:07:26;;;;;;;3.77;1.10;;;;;;;;;;5074923;28;20413;-81
2023/12/11 14:09:52;;;;;;;9.40;2.17;;;;;;;;;;5074875;28;20565;-81
2023/12/11 14:12:17;;;;;;;9.70;1.90;;;;;;;;;;5074587;28;20243;-83
2023/12/11 14:14:44;;;;;;;7.33;1.33;;;;;;;;;;5074408;28;20413;-82
2023/12/11 14:17:09;;;;;;;6.60;1.80;;;;;;;;;;5074887;28;20477;-83
2023/12/11 14:19:36;;;;;;;4.63;1.90;;;;;;;;;;5074930;28;20418;-82
2023/12/11 14:22:02;;;;;;;7.33;1.40;;;;;;;;;;5074244;28;20417;-84
2023/12/11 14:24:28;;;;;;;7.70;1.60;;;;;;;;;;5033769;28;20462;-85
2023/12/11 14:26:54;;;;;;;5.80;2.20;;;;;;;;;;5074536;28;20428;-83
2023/12/11 14:29:20;;;;;;;8.07;1.80;;;;;;;;;;5074150;28;20478;-84
2023/12/11 14:31:47;;;;;;;5.90;1.50;;;;;;;;;;5074135;28;20911;-82
2023/12/11 14:34:13;;;;;;;8.40;2.37;;;;;;;;;;5074578;28;20440;-84